sensor_id;sensor_type;location;lat;lon;timestamp;P1;durP1;ratioP1;P2;durP2;ratioP2
15833;SDS011;8017;50.812;4.934;2022-10-16T00:02:05;1.57;;;1.10;;
15833;SDS011;8017;50.812;4.934;2022-10-16T00:05:07;2.33;;;1.20;;
15833;SDS011;8017;50.812;4.934;2022-10-16T00:08:10;3.10;;;1.23;;
15833;SDS011;8017;50.812;4.934;2022-10-16T00:11:14;1.63;;;1.30;;
15833;SDS011;8017;50.812;4.934;2022-10-16T00:14:18;1.40;;;1.07;;
15833;SDS011;8017;50.812;4.934;2022-10-16T00:17:22;3.03;;;1.50;;
15833;SDS011;8017;50.812;4.934;2022-10-16T00:20:23;1.47;;;1.00;;
15833;SDS011;8017;50.812;4.934;2022-10-16T00:23:25;1.73;;;1.27;;
15833;SDS011;8017;50.812;4.934;2022-10-16T00:26:28;3.90;;;1.30;;
15833;SDS011;8017;50.812;4.934;2022-10-16T00:29:31;1.53;;;1.20;;
15833;SDS011;8017;50.812;4.934;2022-10-16T00:32:34;1.30;;;1.20;;
15833;SDS011;8017;50.812;4.934;2022-10-16T00:35:36;3.03;;;1.10;;
15833;SDS011;8017;50.812;4.934;2022-10-16T00:38:38;2.40;;;1.17;;
15833;SDS011;8017;50.812;4.934;2022-10-16T00:41:40;1.10;;;0.97;;
15833;SDS011;8017;50.812;4.934;2022-10-16T00:44:49;3.43;;;1.57;;
15833;SDS011;8017;50.812;4.934;2022-10-16T00:47:55;1.80;;;1.60;;
15833;SDS011;8017;50.812;4.934;2022-10-16T00:50:57;3.83;;;1.13;;
15833;SDS011;8017;50.812;4.934;2022-10-16T00:54:00;1.83;;;1.20;;
15833;SDS011;8017;50.812;4.934;2022-10-16T00:57:05;1.80;;;1.30;;
15833;SDS011;8017;50.812;4.934;2022-10-16T01:00:09;1.00;;;0.90;;
15833;SDS011;8017;50.812;4.934;2022-10-16T01:03:24;3.43;;;1.20;;
15833;SDS011;8017;50.812;4.934;2022-10-16T01:06:29;4.13;;;1.30;;
15833;SDS011;8017;50.812;4.934;2022-10-16T01:09:40;2.77;;;1.50;;
15833;SDS011;8017;50.812;4.934;2022-10-16T01:12:54;1.60;;;1.07;;
15833;SDS011;8017;50.812;4.934;2022-10-16T01:16:01;1.70;;;1.40;;
15833;SDS011;8017;50.812;4.934;2022-10-16T01:19:11;1.53;;;1.40;;
15833;SDS011;8017;50.812;4.934;2022-10-16T01:22:17;3.03;;;1.40;;
15833;SDS011;8017;50.812;4.934;2022-10-16T01:25:25;2.80;;;1.50;;
15833;SDS011;8017;50.812;4.934;2022-10-16T01:28:34;3.77;;;1.70;;
15833;SDS011;8017;50.812;4.934;2022-10-16T01:31:40;2.13;;;1.67;;
15833;SDS011;8017;50.812;4.934;2022-10-16T01:34:48;6.03;;;1.70;;
15833;SDS011;8017;50.812;4.934;2022-10-16T01:37:55;4.17;;;1.63;;
15833;SDS011;8017;50.812;4.934;2022-10-16T01:41:01;4.13;;;1.60;;
15833;SDS011;8017;50.812;4.934;2022-10-16T01:44:09;2.67;;;1.50;;
15833;SDS011;8017;50.812;4.934;2022-10-16T01:47:15;5.20;;;1.73;;
15833;SDS011;8017;50.812;4.934;2022-10-16T01:50:18;4.43;;;1.80;;
15833;SDS011;8017;50.812;4.934;2022-10-16T01:53:22;2.30;;;1.53;;
15833;SDS011;8017;50.812;4.934;2022-10-16T01:56:26;3.30;;;1.80;;
15833;SDS011;8017;50.812;4.934;2022-10-16T01:59:31;2.97;;;1.60;;
15833;SDS011;8017;50.812;4.934;2022-10-16T02:02:36;3.43;;;2.10;;
15833;SDS011;8017;50.812;4.934;2022-10-16T02:05:41;2.30;;;1.73;;
15833;SDS011;8017;50.812;4.934;2022-10-16T02:08:47;2.30;;;1.70;;
15833;SDS011;8017;50.812;4.934;2022-10-16T02:11:49;2.57;;;1.50;;
15833;SDS011;8017;50.812;4.934;2022-10-16T02:14:55;2.93;;;1.70;;
15833;SDS011;8017;50.812;4.934;2022-10-16T02:17:57;3.43;;;1.60;;
15833;SDS011;8017;50.812;4.934;2022-10-16T02:21:00;1.63;;;1.53;;
15833;SDS011;8017;50.812;4.934;2022-10-16T02:24:08;2.43;;;1.70;;
15833;SDS011;8017;50.812;4.934;2022-10-16T02:27:17;2.10;;;1.90;;
15833;SDS011;8017;50.812;4.934;2022-10-16T02:30:27;4.40;;;1.50;;
15833;SDS011;8017;50.812;4.934;2022-10-16T02:33:33;1.77;;;1.50;;
15833;SDS011;8017;50.812;4.934;2022-10-16T02:36:37;1.90;;;1.40;;
15833;SDS011;8017;50.812;4.934;2022-10-16T02:39:40;4.03;;;1.60;;
15833;SDS011;8017;50.812;4.934;2022-10-16T02:42:42;3.77;;;1.80;;
15833;SDS011;8017;50.812;4.934;2022-10-16T02:45:46;2.27;;;1.60;;
15833;SDS011;8017;50.812;4.934;2022-10-16T02:48:47;3.10;;;2.07;;
15833;SDS011;8017;50.812;4.934;2022-10-16T02:51:49;1.93;;;1.80;;
15833;SDS011;8017;50.812;4.934;2022-10-16T02:54:51;2.17;;;1.93;;
15833;SDS011;8017;50.812;4.934;2022-10-16T02:57:53;3.70;;;1.63;;
15833;SDS011;8017;50.812;4.934;2022-10-16T03:00:56;2.30;;;1.50;;
15833;SDS011;8017;50.812;4.934;2022-10-16T03:03:58;2.57;;;1.70;;
15833;SDS011;8017;50.812;4.934;2022-10-16T03:07:00;3.73;;;1.80;;
15833;SDS011;8017;50.812;4.934;2022-10-16T03:10:02;6.10;;;2.03;;
15833;SDS011;8017;50.812;4.934;2022-10-16T03:13:05;2.60;;;1.87;;
15833;SDS011;8017;50.812;4.934;2022-10-16T03:16:08;1.67;;;1.57;;
15833;SDS011;8017;50.812;4.934;2022-10-16T03:19:10;4.60;;;1.73;;
15833;SDS011;8017;50.812;4.934;2022-10-16T03:22:12;2.67;;;2.03;;
15833;SDS011;8017;50.812;4.934;2022-10-16T03:25:13;2.10;;;1.83;;
15833;SDS011;8017;50.812;4.934;2022-10-16T03:28:15;1.73;;;1.63;;
15833;SDS011;8017;50.812;4.934;2022-10-16T03:31:19;4.20;;;2.00;;
15833;SDS011;8017;50.812;4.934;2022-10-16T03:34:20;2.80;;;1.87;;
15833;SDS011;8017;50.812;4.934;2022-10-16T03:37:23;3.63;;;2.20;;
15833;SDS011;8017;50.812;4.934;2022-10-16T03:40:25;3.33;;;2.00;;
15833;SDS011;8017;50.812;4.934;2022-10-16T03:43:27;4.87;;;2.10;;
15833;SDS011;8017;50.812;4.934;2022-10-16T03:46:30;3.87;;;2.20;;
15833;SDS011;8017;50.812;4.934;2022-10-16T03:49:32;2.80;;;2.20;;
15833;SDS011;8017;50.812;4.934;2022-10-16T03:52:34;4.07;;;2.40;;
15833;SDS011;8017;50.812;4.934;2022-10-16T03:55:36;2.33;;;2.10;;
15833;SDS011;8017;50.812;4.934;2022-10-16T03:58:38;3.57;;;2.20;;
15833;SDS011;8017;50.812;4.934;2022-10-16T04:01:41;2.53;;;2.10;;
15833;SDS011;8017;50.812;4.934;2022-10-16T04:04:43;4.33;;;2.37;;
15833;SDS011;8017;50.812;4.934;2022-10-16T04:07:45;2.17;;;1.97;;
15833;SDS011;8017;50.812;4.934;2022-10-16T04:10:46;2.37;;;2.00;;
15833;SDS011;8017;50.812;4.934;2022-10-16T04:13:48;4.47;;;2.20;;
15833;SDS011;8017;50.812;4.934;2022-10-16T04:16:52;4.60;;;2.50;;
15833;SDS011;8017;50.812;4.934;2022-10-16T04:19:53;3.30;;;2.43;;
15833;SDS011;8017;50.812;4.934;2022-10-16T04:22:55;4.67;;;2.50;;
15833;SDS011;8017;50.812;4.934;2022-10-16T04:25:57;4.53;;;2.83;;
15833;SDS011;8017;50.812;4.934;2022-10-16T04:28:59;3.90;;;3.00;;
15833;SDS011;8017;50.812;4.934;2022-10-16T04:32:02;4.67;;;2.80;;
15833;SDS011;8017;50.812;4.934;2022-10-16T04:35:05;3.37;;;3.03;;
15833;SDS011;8017;50.812;4.934;2022-10-16T04:38:07;3.40;;;2.53;;
15833;SDS011;8017;50.812;4.934;2022-10-16T04:41:09;4.63;;;3.00;;
15833;SDS011;8017;50.812;4.934;2022-10-16T04:44:11;3.97;;;3.07;;
15833;SDS011;8017;50.812;4.934;2022-10-16T04:47:14;4.53;;;3.30;;
15833;SDS011;8017;50.812;4.934;2022-10-16T04:50:16;5.43;;;3.20;;
15833;SDS011;8017;50.812;4.934;2022-10-16T04:53:18;4.30;;;3.70;;
15833;SDS011;8017;50.812;4.934;2022-10-16T04:56:20;5.50;;;3.10;;
15833;SDS011;8017;50.812;4.934;2022-10-16T04:59:23;4.53;;;3.10;;
15833;SDS011;8017;50.812;4.934;2022-10-16T05:02:26;5.80;;;3.50;;
15833;SDS011;8017;50.812;4.934;2022-10-16T05:05:28;4.97;;;3.50;;
15833;SDS011;8017;50.812;4.934;2022-10-16T05:08:30;3.63;;;3.33;;
15833;SDS011;8017;50.812;4.934;2022-10-16T05:11:32;6.83;;;3.47;;
15833;SDS011;8017;50.812;4.934;2022-10-16T05:14:34;3.83;;;3.43;;
15833;SDS011;8017;50.812;4.934;2022-10-16T05:17:38;4.40;;;3.73;;
15833;SDS011;8017;50.812;4.934;2022-10-16T05:20:40;5.87;;;4.13;;
15833;SDS011;8017;50.812;4.934;2022-10-16T05:23:43;6.07;;;3.90;;
15833;SDS011;8017;50.812;4.934;2022-10-16T05:26:45;4.57;;;3.70;;
15833;SDS011;8017;50.812;4.934;2022-10-16T05:29:47;5.90;;;3.97;;
15833;SDS011;8017;50.812;4.934;2022-10-16T05:32:51;7.10;;;4.50;;
15833;SDS011;8017;50.812;4.934;2022-10-16T05:35:53;6.20;;;4.70;;
15833;SDS011;8017;50.812;4.934;2022-10-16T05:38:55;4.37;;;3.97;;
15833;SDS011;8017;50.812;4.934;2022-10-16T05:41:57;5.30;;;4.20;;
15833;SDS011;8017;50.812;4.934;2022-10-16T05:44:58;9.27;;;4.60;;
15833;SDS011;8017;50.812;4.934;2022-10-16T05:48:02;4.87;;;4.17;;
15833;SDS011;8017;50.812;4.934;2022-10-16T05:51:04;5.93;;;3.90;;
15833;SDS011;8017;50.812;4.934;2022-10-16T05:54:07;6.60;;;3.87;;
15833;SDS011;8017;50.812;4.934;2022-10-16T05:57:09;4.37;;;3.77;;
15833;SDS011;8017;50.812;4.934;2022-10-16T06:00:11;5.20;;;4.03;;
15833;SDS011;8017;50.812;4.934;2022-10-16T06:03:15;4.20;;;3.80;;
15833;SDS011;8017;50.812;4.934;2022-10-16T06:06:17;5.53;;;3.77;;
15833;SDS011;8017;50.812;4.934;2022-10-16T06:09:20;5.10;;;4.23;;
15833;SDS011;8017;50.812;4.934;2022-10-16T06:12:22;4.90;;;4.10;;
15833;SDS011;8017;50.812;4.934;2022-10-16T06:15:24;4.53;;;4.13;;
15833;SDS011;8017;50.812;4.934;2022-10-16T06:18:27;4.83;;;4.10;;
15833;SDS011;8017;50.812;4.934;2022-10-16T06:21:30;5.77;;;4.60;;
15833;SDS011;8017;50.812;4.934;2022-10-16T06:24:31;6.20;;;4.03;;
15833;SDS011;8017;50.812;4.934;2022-10-16T06:27:33;7.50;;;4.37;;
15833;SDS011;8017;50.812;4.934;2022-10-16T06:30:35;5.40;;;4.30;;
15833;SDS011;8017;50.812;4.934;2022-10-16T06:33:39;6.07;;;4.33;;
15833;SDS011;8017;50.812;4.934;2022-10-16T06:36:41;4.80;;;4.27;;
15833;SDS011;8017;50.812;4.934;2022-10-16T06:39:43;6.07;;;4.20;;
15833;SDS011;8017;50.812;4.934;2022-10-16T06:42:45;5.70;;;4.40;;
15833;SDS011;8017;50.812;4.934;2022-10-16T06:45:50;6.67;;;4.20;;
15833;SDS011;8017;50.812;4.934;2022-10-16T06:48:53;5.90;;;4.20;;
15833;SDS011;8017;50.812;4.934;2022-10-16T06:51:55;6.77;;;4.77;;
15833;SDS011;8017;50.812;4.934;2022-10-16T06:54:57;5.70;;;4.07;;
15833;SDS011;8017;50.812;4.934;2022-10-16T06:57:59;7.23;;;5.13;;
15833;SDS011;8017;50.812;4.934;2022-10-16T07:01:01;6.53;;;4.60;;
15833;SDS011;8017;50.812;4.934;2022-10-16T07:04:04;4.47;;;3.87;;
15833;SDS011;8017;50.812;4.934;2022-10-16T07:07:06;5.50;;;4.30;;
15833;SDS011;8017;50.812;4.934;2022-10-16T07:10:08;5.40;;;4.33;;
15833;SDS011;8017;50.812;4.934;2022-10-16T07:13:10;7.13;;;4.40;;
15833;SDS011;8017;50.812;4.934;2022-10-16T07:16:13;6.07;;;4.60;;
15833;SDS011;8017;50.812;4.934;2022-10-16T07:19:18;8.63;;;5.17;;
15833;SDS011;8017;50.812;4.934;2022-10-16T07:22:20;6.27;;;3.97;;
15833;SDS011;8017;50.812;4.934;2022-10-16T07:25:22;5.57;;;4.17;;
15833;SDS011;8017;50.812;4.934;2022-10-16T07:28:24;4.53;;;4.13;;
15833;SDS011;8017;50.812;4.934;2022-10-16T07:31:26;4.60;;;4.20;;
15833;SDS011;8017;50.812;4.934;2022-10-16T07:34:29;5.80;;;3.83;;
15833;SDS011;8017;50.812;4.934;2022-10-16T07:37:31;9.90;;;4.30;;
15833;SDS011;8017;50.812;4.934;2022-10-16T07:40:33;4.90;;;3.67;;
15833;SDS011;8017;50.812;4.934;2022-10-16T07:43:35;5.87;;;3.37;;
15833;SDS011;8017;50.812;4.934;2022-10-16T07:46:37;7.27;;;3.77;;
15833;SDS011;8017;50.812;4.934;2022-10-16T07:49:41;5.97;;;3.30;;
15833;SDS011;8017;50.812;4.934;2022-10-16T07:52:42;4.60;;;3.20;;
15833;SDS011;8017;50.812;4.934;2022-10-16T07:55:44;4.80;;;3.30;;
15833;SDS011;8017;50.812;4.934;2022-10-16T07:58:46;4.60;;;3.30;;
15833;SDS011;8017;50.812;4.934;2022-10-16T08:01:49;5.97;;;2.97;;
15833;SDS011;8017;50.812;4.934;2022-10-16T08:04:52;3.73;;;3.03;;
15833;SDS011;8017;50.812;4.934;2022-10-16T08:07:54;7.17;;;3.13;;
15833;SDS011;8017;50.812;4.934;2022-10-16T08:10:57;5.23;;;3.10;;
15833;SDS011;8017;50.812;4.934;2022-10-16T08:13:59;4.10;;;2.70;;
15833;SDS011;8017;50.812;4.934;2022-10-16T08:17:00;4.83;;;2.60;;
15833;SDS011;8017;50.812;4.934;2022-10-16T08:20:06;3.33;;;2.10;;
15833;SDS011;8017;50.812;4.934;2022-10-16T08:23:09;4.53;;;2.77;;
15833;SDS011;8017;50.812;4.934;2022-10-16T08:26:12;6.03;;;2.50;;
15833;SDS011;8017;50.812;4.934;2022-10-16T08:29:14;4.33;;;2.60;;
15833;SDS011;8017;50.812;4.934;2022-10-16T08:32:16;4.43;;;2.30;;
15833;SDS011;8017;50.812;4.934;2022-10-16T08:35:19;8.73;;;1.90;;
15833;SDS011;8017;50.812;4.934;2022-10-16T08:38:21;4.00;;;1.90;;
15833;SDS011;8017;50.812;4.934;2022-10-16T08:41:30;4.60;;;2.03;;
15833;SDS011;8017;50.812;4.934;2022-10-16T08:45:02;6.13;;;2.80;;
15833;SDS011;8017;50.812;4.934;2022-10-16T08:48:18;2.97;;;1.80;;
15833;SDS011;8017;50.812;4.934;2022-10-16T08:51:26;4.20;;;2.10;;
15833;SDS011;8017;50.812;4.934;2022-10-16T08:54:31;6.70;;;2.13;;
15833;SDS011;8017;50.812;4.934;2022-10-16T08:57:40;7.50;;;2.60;;
15833;SDS011;8017;50.812;4.934;2022-10-16T09:00:43;5.13;;;2.50;;
15833;SDS011;8017;50.812;4.934;2022-10-16T09:04:01;2.47;;;1.80;;
15833;SDS011;8017;50.812;4.934;2022-10-16T09:07:24;6.73;;;2.10;;
15833;SDS011;8017;50.812;4.934;2022-10-16T09:10:38;7.07;;;2.30;;
15833;SDS011;8017;50.812;4.934;2022-10-16T09:13:48;3.13;;;1.73;;
15833;SDS011;8017;50.812;4.934;2022-10-16T09:16:58;4.20;;;1.90;;
15833;SDS011;8017;50.812;4.934;2022-10-16T09:20:18;4.70;;;2.07;;
15833;SDS011;8017;50.812;4.934;2022-10-16T09:23:42;6.57;;;2.10;;
15833;SDS011;8017;50.812;4.934;2022-10-16T09:26:44;4.43;;;2.10;;
15833;SDS011;8017;50.812;4.934;2022-10-16T09:29:47;4.57;;;1.70;;
15833;SDS011;8017;50.812;4.934;2022-10-16T09:32:50;5.93;;;1.73;;
15833;SDS011;8017;50.812;4.934;2022-10-16T09:35:54;5.57;;;1.87;;
15833;SDS011;8017;50.812;4.934;2022-10-16T09:39:03;3.90;;;1.50;;
15833;SDS011;8017;50.812;4.934;2022-10-16T09:42:07;1.87;;;1.40;;
15833;SDS011;8017;50.812;4.934;2022-10-16T09:45:19;6.37;;;1.53;;
15833;SDS011;8017;50.812;4.934;2022-10-16T09:48:23;4.03;;;1.30;;
15833;SDS011;8017;50.812;4.934;2022-10-16T09:51:30;2.87;;;1.13;;
15833;SDS011;8017;50.812;4.934;2022-10-16T09:54:35;5.83;;;1.50;;
15833;SDS011;8017;50.812;4.934;2022-10-16T09:57:37;2.50;;;1.30;;
15833;SDS011;8017;50.812;4.934;2022-10-16T10:00:50;5.40;;;1.50;;
15833;SDS011;8017;50.812;4.934;2022-10-16T10:03:55;3.00;;;1.70;;
15833;SDS011;8017;50.812;4.934;2022-10-16T10:07:01;4.17;;;1.60;;
15833;SDS011;8017;50.812;4.934;2022-10-16T10:10:04;3.70;;;1.40;;
15833;SDS011;8017;50.812;4.934;2022-10-16T10:13:14;4.00;;;1.30;;
15833;SDS011;8017;50.812;4.934;2022-10-16T10:16:23;3.80;;;1.50;;
15833;SDS011;8017;50.812;4.934;2022-10-16T10:19:26;3.20;;;1.20;;
15833;SDS011;8017;50.812;4.934;2022-10-16T10:22:30;4.80;;;1.57;;
15833;SDS011;8017;50.812;4.934;2022-10-16T10:25:40;2.97;;;1.03;;
15833;SDS011;8017;50.812;4.934;2022-10-16T10:28:54;4.03;;;1.30;;
15833;SDS011;8017;50.812;4.934;2022-10-16T10:32:03;4.57;;;1.40;;
15833;SDS011;8017;50.812;4.934;2022-10-16T10:35:14;4.70;;;1.60;;
15833;SDS011;8017;50.812;4.934;2022-10-16T10:38:23;4.17;;;1.70;;
15833;SDS011;8017;50.812;4.934;2022-10-16T10:48:47;1.47;;;1.27;;
15833;SDS011;8017;50.812;4.934;2022-10-16T10:52:02;3.90;;;1.07;;
15833;SDS011;8017;50.812;4.934;2022-10-16T10:55:16;2.73;;;1.10;;
15833;SDS011;8017;50.812;4.934;2022-10-16T11:01:58;5.47;;;1.50;;
15833;SDS011;8017;50.812;4.934;2022-10-16T11:05:13;4.07;;;1.27;;
15833;SDS011;8017;50.812;4.934;2022-10-16T11:08:27;3.97;;;1.20;;
15833;SDS011;8017;50.812;4.934;2022-10-16T11:11:35;4.20;;;1.17;;
15833;SDS011;8017;50.812;4.934;2022-10-16T11:14:45;4.60;;;1.40;;
15833;SDS011;8017;50.812;4.934;2022-10-16T11:17:52;3.30;;;1.50;;
15833;SDS011;8017;50.812;4.934;2022-10-16T11:21:00;3.10;;;1.10;;
15833;SDS011;8017;50.812;4.934;2022-10-16T11:24:09;3.10;;;1.00;;
15833;SDS011;8017;50.812;4.934;2022-10-16T11:27:18;3.93;;;0.80;;
15833;SDS011;8017;50.812;4.934;2022-10-16T11:30:26;5.03;;;1.00;;
15833;SDS011;8017;50.812;4.934;2022-10-16T11:33:31;2.37;;;1.20;;
15833;SDS011;8017;50.812;4.934;2022-10-16T11:36:38;4.03;;;0.90;;
15833;SDS011;8017;50.812;4.934;2022-10-16T11:39:43;4.10;;;1.03;;
15833;SDS011;8017;50.812;4.934;2022-10-16T11:42:48;2.77;;;1.10;;
15833;SDS011;8017;50.812;4.934;2022-10-16T11:45:57;2.87;;;1.10;;
15833;SDS011;8017;50.812;4.934;2022-10-16T11:49:06;5.47;;;1.17;;
15833;SDS011;8017;50.812;4.934;2022-10-16T11:52:15;5.43;;;1.60;;
15833;SDS011;8017;50.812;4.934;2022-10-16T11:55:23;3.03;;;1.17;;
15833;SDS011;8017;50.812;4.934;2022-10-16T11:58:32;2.77;;;1.03;;
15833;SDS011;8017;50.812;4.934;2022-10-16T12:01:41;3.00;;;1.10;;
15833;SDS011;8017;50.812;4.934;2022-10-16T12:04:48;4.60;;;1.23;;
15833;SDS011;8017;50.812;4.934;2022-10-16T12:08:02;3.73;;;1.10;;
15833;SDS011;8017;50.812;4.934;2022-10-16T12:11:32;2.67;;;1.07;;
15833;SDS011;8017;50.812;4.934;2022-10-16T12:14:38;2.87;;;1.03;;
15833;SDS011;8017;50.812;4.934;2022-10-16T12:17:42;2.93;;;1.20;;
15833;SDS011;8017;50.812;4.934;2022-10-16T12:20:44;3.30;;;1.20;;
15833;SDS011;8017;50.812;4.934;2022-10-16T12:24:02;1.83;;;0.80;;
15833;SDS011;8017;50.812;4.934;2022-10-16T12:27:05;4.47;;;0.93;;
15833;SDS011;8017;50.812;4.934;2022-10-16T12:30:22;3.80;;;0.80;;
15833;SDS011;8017;50.812;4.934;2022-10-16T12:33:28;2.83;;;1.00;;
15833;SDS011;8017;50.812;4.934;2022-10-16T12:36:32;7.70;;;5.67;;
15833;SDS011;8017;50.812;4.934;2022-10-16T12:39:35;4.27;;;1.37;;
15833;SDS011;8017;50.812;4.934;2022-10-16T12:42:38;2.80;;;1.13;;
15833;SDS011;8017;50.812;4.934;2022-10-16T12:45:40;4.30;;;1.20;;
15833;SDS011;8017;50.812;4.934;2022-10-16T12:48:43;3.23;;;1.30;;
15833;SDS011;8017;50.812;4.934;2022-10-16T12:51:48;2.93;;;1.20;;
15833;SDS011;8017;50.812;4.934;2022-10-16T12:54:50;2.60;;;1.17;;
15833;SDS011;8017;50.812;4.934;2022-10-16T12:57:57;2.50;;;1.00;;
15833;SDS011;8017;50.812;4.934;2022-10-16T13:01:09;3.70;;;1.13;;
15833;SDS011;8017;50.812;4.934;2022-10-16T13:04:23;3.23;;;0.83;;
15833;SDS011;8017;50.812;4.934;2022-10-16T13:07:42;2.97;;;1.00;;
15833;SDS011;8017;50.812;4.934;2022-10-16T13:10:54;2.20;;;1.00;;
15833;SDS011;8017;50.812;4.934;2022-10-16T13:14:07;3.20;;;1.00;;
15833;SDS011;8017;50.812;4.934;2022-10-16T13:17:36;5.57;;;1.10;;
15833;SDS011;8017;50.812;4.934;2022-10-16T13:20:59;3.17;;;1.00;;
15833;SDS011;8017;50.812;4.934;2022-10-16T13:24:21;3.03;;;0.90;;
15833;SDS011;8017;50.812;4.934;2022-10-16T13:27:35;2.60;;;1.00;;
15833;SDS011;8017;50.812;4.934;2022-10-16T13:30:43;2.70;;;0.97;;
15833;SDS011;8017;50.812;4.934;2022-10-16T13:33:52;4.50;;;1.13;;
15833;SDS011;8017;50.812;4.934;2022-10-16T13:36:57;3.73;;;1.00;;
15833;SDS011;8017;50.812;4.934;2022-10-16T13:40:06;3.20;;;1.10;;
15833;SDS011;8017;50.812;4.934;2022-10-16T13:43:18;3.60;;;1.03;;
15833;SDS011;8017;50.812;4.934;2022-10-16T13:46:24;3.10;;;0.90;;
15833;SDS011;8017;50.812;4.934;2022-10-16T13:49:26;2.60;;;0.87;;
15833;SDS011;8017;50.812;4.934;2022-10-16T13:52:29;1.97;;;0.97;;
15833;SDS011;8017;50.812;4.934;2022-10-16T13:55:32;3.60;;;1.10;;
15833;SDS011;8017;50.812;4.934;2022-10-16T13:58:34;3.23;;;0.90;;
15833;SDS011;8017;50.812;4.934;2022-10-16T14:01:39;3.20;;;1.07;;
15833;SDS011;8017;50.812;4.934;2022-10-16T14:04:43;3.60;;;1.10;;
15833;SDS011;8017;50.812;4.934;2022-10-16T14:07:47;2.43;;;0.80;;
15833;SDS011;8017;50.812;4.934;2022-10-16T14:10:52;1.70;;;0.70;;
15833;SDS011;8017;50.812;4.934;2022-10-16T14:13:56;3.00;;;1.10;;
15833;SDS011;8017;50.812;4.934;2022-10-16T14:16:58;3.30;;;0.80;;
15833;SDS011;8017;50.812;4.934;2022-10-16T14:20:00;3.73;;;0.97;;
15833;SDS011;8017;50.812;4.934;2022-10-16T14:23:18;5.27;;;1.20;;
15833;SDS011;8017;50.812;4.934;2022-10-16T14:26:23;3.70;;;0.90;;
15833;SDS011;8017;50.812;4.934;2022-10-16T14:29:27;3.50;;;1.00;;
15833;SDS011;8017;50.812;4.934;2022-10-16T14:32:31;2.23;;;0.87;;
15833;SDS011;8017;50.812;4.934;2022-10-16T14:35:33;1.90;;;0.60;;
15833;SDS011;8017;50.812;4.934;2022-10-16T14:38:38;1.80;;;0.80;;
15833;SDS011;8017;50.812;4.934;2022-10-16T14:41:43;2.37;;;0.80;;
15833;SDS011;8017;50.812;4.934;2022-10-16T14:44:47;1.73;;;0.77;;
15833;SDS011;8017;50.812;4.934;2022-10-16T14:47:53;1.43;;;0.60;;
15833;SDS011;8017;50.812;4.934;2022-10-16T14:50:57;1.73;;;0.80;;
15833;SDS011;8017;50.812;4.934;2022-10-16T14:54:00;2.67;;;1.20;;
15833;SDS011;8017;50.812;4.934;2022-10-16T14:57:02;2.70;;;0.90;;
15833;SDS011;8017;50.812;4.934;2022-10-16T15:00:08;3.97;;;1.47;;
15833;SDS011;8017;50.812;4.934;2022-10-16T15:03:16;2.90;;;1.40;;
15833;SDS011;8017;50.812;4.934;2022-10-16T15:06:18;1.93;;;0.90;;
15833;SDS011;8017;50.812;4.934;2022-10-16T15:09:21;2.63;;;1.07;;
15833;SDS011;8017;50.812;4.934;2022-10-16T15:12:23;3.40;;;1.23;;
15833;SDS011;8017;50.812;4.934;2022-10-16T15:15:26;2.90;;;1.30;;
15833;SDS011;8017;50.812;4.934;2022-10-16T15:18:34;2.93;;;1.20;;
15833;SDS011;8017;50.812;4.934;2022-10-16T15:21:36;2.57;;;1.70;;
15833;SDS011;8017;50.812;4.934;2022-10-16T15:24:39;3.83;;;1.87;;
15833;SDS011;8017;50.812;4.934;2022-10-16T15:27:41;3.93;;;2.10;;
15833;SDS011;8017;50.812;4.934;2022-10-16T15:30:43;2.37;;;1.60;;
15833;SDS011;8017;50.812;4.934;2022-10-16T15:33:46;4.00;;;1.40;;
15833;SDS011;8017;50.812;4.934;2022-10-16T15:36:53;2.47;;;1.60;;
15833;SDS011;8017;50.812;4.934;2022-10-16T15:39:59;4.67;;;1.43;;
15833;SDS011;8017;50.812;4.934;2022-10-16T15:43:01;4.17;;;1.40;;
15833;SDS011;8017;50.812;4.934;2022-10-16T15:46:03;3.27;;;1.30;;
15833;SDS011;8017;50.812;4.934;2022-10-16T15:49:12;2.97;;;1.30;;
15833;SDS011;8017;50.812;4.934;2022-10-16T15:52:14;4.70;;;1.37;;
15833;SDS011;8017;50.812;4.934;2022-10-16T15:55:18;3.10;;;1.40;;
15833;SDS011;8017;50.812;4.934;2022-10-16T15:58:19;2.70;;;1.30;;
15833;SDS011;8017;50.812;4.934;2022-10-16T16:01:21;2.17;;;1.10;;
15833;SDS011;8017;50.812;4.934;2022-10-16T16:04:23;3.83;;;1.30;;
15833;SDS011;8017;50.812;4.934;2022-10-16T16:07:25;2.70;;;1.03;;
15833;SDS011;8017;50.812;4.934;2022-10-16T16:10:29;6.07;;;1.23;;
15833;SDS011;8017;50.812;4.934;2022-10-16T16:13:30;7.67;;;1.77;;
15833;SDS011;8017;50.812;4.934;2022-10-16T16:16:33;5.80;;;1.90;;
15833;SDS011;8017;50.812;4.934;2022-10-16T16:19:37;2.70;;;1.80;;
15833;SDS011;8017;50.812;4.934;2022-10-16T16:22:39;3.43;;;1.80;;
15833;SDS011;8017;50.812;4.934;2022-10-16T16:25:42;3.20;;;1.67;;
15833;SDS011;8017;50.812;4.934;2022-10-16T16:28:44;5.80;;;1.70;;
15833;SDS011;8017;50.812;4.934;2022-10-16T16:31:46;4.93;;;2.47;;
15833;SDS011;8017;50.812;4.934;2022-10-16T16:34:48;5.77;;;1.97;;
15833;SDS011;8017;50.812;4.934;2022-10-16T16:37:49;3.47;;;2.40;;
15833;SDS011;8017;50.812;4.934;2022-10-16T16:40:53;5.30;;;2.63;;
15833;SDS011;8017;50.812;4.934;2022-10-16T16:43:55;6.73;;;2.47;;
15833;SDS011;8017;50.812;4.934;2022-10-16T16:47:02;6.30;;;2.67;;
15833;SDS011;8017;50.812;4.934;2022-10-16T16:50:05;4.70;;;2.50;;
15833;SDS011;8017;50.812;4.934;2022-10-16T16:53:08;3.47;;;2.13;;
15833;SDS011;8017;50.812;4.934;2022-10-16T16:56:11;3.93;;;2.43;;
15833;SDS011;8017;50.812;4.934;2022-10-16T16:59:13;3.50;;;2.20;;
15833;SDS011;8017;50.812;4.934;2022-10-16T17:02:17;6.23;;;2.27;;
15833;SDS011;8017;50.812;4.934;2022-10-16T17:05:19;6.67;;;2.10;;
15833;SDS011;8017;50.812;4.934;2022-10-16T17:08:21;6.30;;;2.60;;
15833;SDS011;8017;50.812;4.934;2022-10-16T17:11:25;4.73;;;2.30;;
15833;SDS011;8017;50.812;4.934;2022-10-16T17:14:28;5.37;;;2.50;;
15833;SDS011;8017;50.812;4.934;2022-10-16T17:17:30;2.83;;;2.20;;
15833;SDS011;8017;50.812;4.934;2022-10-16T17:20:35;5.50;;;2.50;;
15833;SDS011;8017;50.812;4.934;2022-10-16T17:23:37;3.10;;;2.10;;
15833;SDS011;8017;50.812;4.934;2022-10-16T17:26:40;7.20;;;2.80;;
15833;SDS011;8017;50.812;4.934;2022-10-16T17:29:49;5.70;;;2.70;;
15833;SDS011;8017;50.812;4.934;2022-10-16T17:32:52;6.00;;;3.30;;
15833;SDS011;8017;50.812;4.934;2022-10-16T17:35:54;6.33;;;3.60;;
15833;SDS011;8017;50.812;4.934;2022-10-16T17:38:56;4.67;;;3.63;;
15833;SDS011;8017;50.812;4.934;2022-10-16T17:42:02;4.20;;;3.20;;
15833;SDS011;8017;50.812;4.934;2022-10-16T17:45:04;6.00;;;3.60;;
15833;SDS011;8017;50.812;4.934;2022-10-16T17:48:07;4.87;;;3.63;;
15833;SDS011;8017;50.812;4.934;2022-10-16T17:51:09;5.20;;;4.70;;
15833;SDS011;8017;50.812;4.934;2022-10-16T17:54:12;5.40;;;3.73;;
15833;SDS011;8017;50.812;4.934;2022-10-16T17:57:16;7.53;;;3.90;;
15833;SDS011;8017;50.812;4.934;2022-10-16T18:00:18;7.20;;;3.97;;
15833;SDS011;8017;50.812;4.934;2022-10-16T18:03:20;8.17;;;4.03;;
15833;SDS011;8017;50.812;4.934;2022-10-16T18:06:22;5.60;;;3.90;;
15833;SDS011;8017;50.812;4.934;2022-10-16T18:09:24;5.10;;;4.30;;
15833;SDS011;8017;50.812;4.934;2022-10-16T18:12:27;4.73;;;4.27;;
15833;SDS011;8017;50.812;4.934;2022-10-16T18:15:29;5.67;;;4.20;;
15833;SDS011;8017;50.812;4.934;2022-10-16T18:18:31;5.93;;;5.17;;
15833;SDS011;8017;50.812;4.934;2022-10-16T18:21:33;8.70;;;5.97;;
15833;SDS011;8017;50.812;4.934;2022-10-16T18:24:35;6.57;;;5.60;;
15833;SDS011;8017;50.812;4.934;2022-10-16T18:27:38;5.97;;;5.40;;
15833;SDS011;8017;50.812;4.934;2022-10-16T18:30:40;9.80;;;5.43;;
15833;SDS011;8017;50.812;4.934;2022-10-16T18:33:42;5.63;;;4.87;;
15833;SDS011;8017;50.812;4.934;2022-10-16T18:36:47;4.90;;;4.00;;
15833;SDS011;8017;50.812;4.934;2022-10-16T18:39:49;6.23;;;4.97;;
15833;SDS011;8017;50.812;4.934;2022-10-16T18:42:52;6.70;;;5.83;;
15833;SDS011;8017;50.812;4.934;2022-10-16T18:45:54;7.47;;;6.20;;
15833;SDS011;8017;50.812;4.934;2022-10-16T18:48:57;9.90;;;7.13;;
15833;SDS011;8017;50.812;4.934;2022-10-16T18:52:00;9.63;;;6.83;;
15833;SDS011;8017;50.812;4.934;2022-10-16T18:55:02;9.20;;;6.90;;
15833;SDS011;8017;50.812;4.934;2022-10-16T18:58:06;9.03;;;7.40;;
15833;SDS011;8017;50.812;4.934;2022-10-16T19:01:09;7.47;;;6.80;;